createdAt,value
2022-12-03T00:01:45.636Z,8.30
2022-12-03T00:06:52.900Z,7.88
2022-12-03T00:12:00.401Z,8.35
2022-12-03T00:14:38.864Z,12.48
2022-12-03T00:17:17.055Z,11.02
2022-12-03T00:19:50.883Z,12.25
2022-12-03T00:22:24.696Z,12.73
2022-12-03T00:27:31.995Z,8.93
2022-12-03T00:30:09.445Z,7.60
2022-12-03T00:32:43.255Z,9.75
2022-12-03T00:37:50.649Z,10.37
2022-12-03T00:42:58.208Z,8.23
2022-12-03T00:45:33.463Z,11.35
2022-12-03T00:48:07.647Z,10.10
2022-12-03T00:50:41.404Z,9.63
2022-12-03T00:53:15.157Z,8.18
2022-12-03T00:58:24.527Z,8.98
2022-12-03T01:03:33.227Z,7.68
2022-12-03T01:08:40.575Z,9.30
2022-12-03T01:14:01.622Z,10.95
2022-12-03T01:19:15.949Z,11.65
2022-12-03T01:21:51.624Z,10.45
2022-12-03T01:24:25.380Z,11.93
2022-12-03T01:29:32.727Z,9.82
2022-12-03T01:34:56.177Z,9.90
2022-12-03T01:37:30.334Z,9.02
2022-12-03T01:42:41.309Z,10.45
2022-12-03T01:45:24.954Z,13.40
2022-12-03T01:48:00.858Z,9.55
2022-12-03T01:50:35.292Z,10.95
2022-12-03T01:53:12.892Z,9.90
2022-12-03T01:55:49.009Z,13.80
2022-12-03T01:58:27.789Z,11.70
2022-12-03T02:01:05.766Z,10.90
2022-12-03T02:03:41.172Z,12.60
2022-12-03T02:06:17.930Z,11.75
2022-12-03T02:08:58.833Z,10.25
2022-12-03T02:11:36.844Z,12.30
2022-12-03T02:14:13.605Z,10.38
2022-12-03T02:16:47.976Z,11.45
2022-12-03T02:19:27.032Z,12.75
2022-12-03T02:22:06.940Z,12.13
2022-12-03T02:24:45.055Z,10.70
2022-12-03T02:27:20.462Z,10.50
2022-12-03T02:29:54.289Z,12.50
2022-12-03T02:35:01.596Z,11.57
2022-12-03T02:40:13.936Z,13.88
2022-12-03T02:42:51.500Z,10.38
2022-12-03T02:45:29.677Z,14.35
2022-12-03T02:48:07.583Z,11.07
2022-12-03T02:50:43.364Z,13.18
2022-12-03T02:53:20.294Z,10.73
2022-12-03T02:55:55.902Z,11.75
2022-12-03T02:58:34.317Z,13.07
2022-12-03T03:01:09.129Z,12.02
2022-12-03T03:03:43.713Z,12.82
2022-12-03T03:06:19.205Z,11.80
2022-12-03T03:08:53.244Z,11.70
2022-12-03T03:11:27.233Z,11.95
2022-12-03T03:14:03.124Z,14.73
2022-12-03T03:16:37.438Z,10.27
2022-12-03T03:19:11.349Z,11.55
2022-12-03T03:21:46.074Z,10.73
2022-12-03T03:26:54.365Z,11.95
2022-12-03T03:29:29.700Z,12.05
2022-12-03T03:32:04.483Z,10.80
2022-12-03T03:34:38.320Z,10.32
2022-12-03T03:39:45.689Z,12.75
2022-12-03T03:44:54.861Z,11.27
2022-12-03T03:47:29.220Z,14.00
2022-12-03T03:50:03.382Z,11.10
2022-12-03T03:52:38.671Z,11.00
2022-12-03T03:55:13.693Z,12.95
2022-12-03T03:57:47.835Z,11.23
2022-12-03T04:00:24.871Z,14.07
2022-12-03T04:02:58.812Z,11.52
2022-12-03T04:05:32.751Z,13.63
2022-12-03T04:08:06.732Z,10.70
2022-12-03T04:10:57.830Z,12.90
2022-12-03T04:13:31.904Z,9.93
2022-12-03T04:16:07.531Z,11.27
2022-12-03T04:18:44.549Z,10.32
2022-12-03T04:21:37.271Z,8.60
2022-12-03T04:24:12.710Z,10.23
2022-12-03T04:27:04.172Z,12.75
2022-12-03T04:29:38.092Z,11.10
2022-12-03T04:32:30.725Z,11.55
2022-12-03T04:35:22.380Z,11.15
2022-12-03T04:37:56.660Z,10.85
2022-12-03T04:40:48.135Z,11.55
2022-12-03T04:43:22.003Z,14.05
2022-12-03T04:48:31.171Z,10.98
2022-12-03T04:51:05.121Z,19.83
2022-12-03T04:53:45.847Z,11.68
2022-12-03T04:56:20.308Z,20.92
2022-12-03T04:58:54.647Z,16.10
2022-12-03T05:01:28.711Z,13.52
2022-12-03T05:04:04.334Z,16.60
2022-12-03T05:06:38.568Z,24.52
2022-12-03T05:09:13.934Z,16.08
2022-12-03T05:11:47.861Z,20.20
2022-12-03T05:14:21.942Z,18.55
2022-12-03T05:16:56.290Z,28.42
2022-12-03T05:19:45.601Z,23.33
2022-12-03T05:22:19.574Z,15.13
2022-12-03T05:24:53.776Z,18.80
2022-12-03T05:27:27.881Z,16.83
2022-12-03T05:30:02.026Z,14.95
2022-12-03T05:32:35.889Z,17.23
2022-12-03T05:37:44.999Z,15.32
2022-12-03T05:42:54.642Z,21.40
2022-12-03T05:45:30.718Z,18.65
2022-12-03T05:48:06.235Z,17.30
2022-12-03T05:50:43.952Z,14.57
2022-12-03T05:53:20.820Z,18.75
2022-12-03T05:58:28.257Z,18.57
2022-12-03T06:03:35.776Z,15.27
2022-12-03T06:06:11.371Z,14.63
2022-12-03T06:08:45.174Z,19.92
2022-12-03T06:13:52.684Z,16.80
2022-12-03T06:16:26.829Z,15.07
2022-12-03T06:19:01.255Z,19.27
2022-12-03T06:21:37.035Z,19.52
2022-12-03T06:24:11.550Z,18.55
2022-12-03T06:26:47.145Z,20.55
2022-12-03T06:29:21.383Z,19.52
2022-12-03T06:31:55.514Z,23.52
2022-12-03T06:34:29.500Z,20.35
2022-12-03T06:39:38.726Z,23.48
2022-12-03T06:44:46.129Z,23.00
2022-12-03T06:49:53.439Z,23.92
2022-12-03T06:55:02.171Z,19.00
2022-12-03T07:00:10.957Z,24.42
2022-12-03T07:02:45.152Z,20.35
2022-12-03T07:05:20.575Z,22.83
2022-12-03T07:07:55.842Z,20.25
2022-12-03T07:10:29.746Z,24.23
2022-12-03T07:15:37.385Z,19.77
2022-12-03T07:18:11.256Z,18.52
2022-12-03T07:20:45.609Z,20.60
2022-12-03T07:25:54.394Z,20.60
2022-12-03T07:28:28.458Z,20.63
2022-12-03T07:33:36.245Z,24.02
2022-12-03T07:38:46.137Z,19.42
2022-12-03T07:41:19.972Z,17.17
2022-12-03T07:46:27.398Z,21.65
2022-12-03T07:49:01.220Z,21.52
2022-12-03T07:54:10.098Z,18.98
2022-12-03T07:56:43.891Z,16.75
2022-12-03T08:01:51.310Z,18.15
2022-12-03T08:04:25.208Z,20.17
2022-12-03T08:09:33.999Z,15.57
2022-12-03T08:12:16.748Z,16.60
2022-12-03T08:14:51.063Z,15.50
2022-12-03T08:17:26.149Z,22.55
2022-12-03T08:19:59.920Z,21.33
2022-12-03T08:22:34.941Z,17.80
2022-12-03T08:25:18.541Z,16.40
2022-12-03T08:27:55.259Z,26.02
2022-12-03T08:30:29.481Z,21.75
2022-12-03T08:33:07.791Z,23.65
2022-12-03T08:35:50.103Z,16.45
2022-12-03T08:38:26.013Z,23.50
2022-12-03T08:41:01.201Z,25.17
2022-12-03T08:43:42.047Z,14.30
2022-12-03T08:46:20.376Z,20.60
2022-12-03T08:48:54.202Z,14.73
2022-12-03T08:54:08.914Z,19.70
2022-12-03T08:56:45.003Z,12.65
2022-12-03T08:59:31.241Z,19.02
2022-12-03T09:02:15.332Z,19.23
2022-12-03T09:07:22.635Z,23.55
2022-12-03T09:12:31.319Z,17.35
2022-12-03T09:15:05.671Z,18.20
2022-12-03T09:17:39.703Z,23.58
2022-12-03T09:20:13.946Z,19.05
2022-12-03T09:22:48.170Z,19.52
2022-12-03T09:25:22.051Z,18.13
2022-12-03T09:27:57.291Z,20.17
2022-12-03T09:30:31.391Z,16.05
2022-12-03T09:33:08.700Z,20.17
2022-12-03T09:35:42.757Z,19.15
2022-12-03T09:38:17.031Z,19.02
2022-12-03T09:40:51.199Z,12.60
2022-12-03T09:43:43.347Z,33.15
2022-12-03T09:46:24.569Z,30.00
2022-12-03T09:48:58.516Z,38.55
2022-12-03T09:51:35.862Z,32.10
2022-12-03T09:54:11.706Z,30.92
2022-12-03T09:56:45.514Z,23.25
2022-12-03T10:01:55.784Z,24.38
2022-12-03T10:04:30.423Z,23.13
2022-12-03T10:07:04.333Z,35.47
2022-12-03T10:12:14.413Z,25.45
2022-12-03T10:14:49.954Z,23.52
2022-12-03T10:17:23.741Z,19.13
2022-12-03T10:22:37.102Z,23.43
2022-12-03T10:25:14.222Z,21.73
2022-12-03T10:27:58.231Z,22.85
2022-12-03T10:30:33.941Z,20.60
2022-12-03T10:33:18.845Z,28.80
2022-12-03T10:35:53.228Z,20.48
2022-12-03T10:38:27.419Z,24.08
2022-12-03T10:41:20.704Z,22.38
2022-12-03T10:43:54.569Z,23.38
2022-12-03T10:49:11.321Z,28.10
2022-12-03T10:51:45.963Z,21.52
2022-12-03T10:54:23.824Z,22.35
2022-12-03T10:56:58.488Z,20.55
2022-12-03T10:59:35.308Z,27.25
2022-12-03T11:02:15.615Z,25.33
2022-12-03T11:04:49.999Z,20.00
2022-12-03T11:07:24.649Z,24.75
2022-12-03T11:10:00.534Z,20.25
2022-12-03T11:12:35.769Z,17.33
2022-12-03T11:15:17.333Z,21.55
2022-12-03T11:17:54.303Z,24.30
2022-12-03T11:21:11.175Z,29.95
2022-12-03T11:24:16.148Z,25.02
2022-12-03T11:27:19.078Z,30.88
2022-12-03T11:29:58.892Z,20.60
2022-12-03T11:33:21.273Z,24.35
2022-12-03T11:36:15.435Z,16.52
2022-12-03T11:38:58.586Z,17.65
2022-12-03T11:41:34.900Z,20.38
2022-12-03T11:44:31.448Z,21.27
2022-12-03T11:47:16.955Z,20.10
2022-12-03T11:49:53.035Z,22.65
2022-12-03T11:52:31.461Z,15.63
2022-12-03T11:55:15.734Z,17.55
2022-12-03T11:57:49.668Z,21.65
2022-12-03T12:00:25.708Z,20.75
2022-12-03T12:03:00.358Z,19.52
2022-12-03T12:05:36.027Z,22.67
2022-12-03T12:08:20.335Z,18.10
2022-12-03T12:10:54.417Z,22.52
2022-12-03T12:13:56.404Z,16.00
2022-12-03T12:16:51.203Z,23.63
2022-12-03T12:19:41.492Z,25.92
2022-12-03T12:22:19.607Z,20.80
2022-12-03T12:24:54.736Z,17.00
2022-12-03T12:27:53.273Z,18.83
2022-12-03T12:30:27.106Z,21.23
2022-12-03T12:35:37.279Z,19.88
2022-12-03T12:40:51.380Z,35.28
2022-12-03T12:43:27.011Z,31.75
2022-12-03T12:46:38.635Z,42.75
2022-12-03T12:49:01.565Z,31.33
2022-12-03T12:51:35.566Z,32.65
2022-12-03T12:54:14.046Z,31.05
2022-12-03T12:56:50.148Z,27.67
2022-12-03T12:59:24.906Z,24.00
2022-12-03T13:01:59.446Z,30.45
2022-12-03T13:04:39.756Z,28.95
2022-12-03T13:07:13.965Z,28.00
2022-12-03T13:09:54.913Z,32.28
2022-12-03T13:12:29.085Z,22.98
2022-12-03T13:17:36.677Z,30.70
2022-12-03T13:22:50.344Z,25.50
2022-12-03T13:26:00.239Z,27.05
2022-12-03T13:28:31.980Z,21.70
2022-12-03T13:31:24.675Z,23.70
2022-12-03T13:33:59.363Z,29.02
2022-12-03T13:36:40.630Z,19.45
2022-12-03T13:39:21.668Z,23.75
2022-12-03T13:42:15.793Z,22.38
2022-12-03T13:44:51.159Z,19.00
2022-12-03T13:47:25.246Z,31.33
2022-12-03T13:50:03.806Z,29.23
2022-12-03T13:52:37.754Z,21.48
2022-12-03T13:55:16.418Z,24.00
2022-12-03T13:57:51.599Z,19.98
2022-12-03T14:00:25.679Z,23.77
2022-12-03T14:02:59.789Z,18.60
2022-12-03T14:05:33.660Z,16.67
2022-12-03T14:10:41.764Z,23.23
2022-12-03T14:13:17.013Z,20.95
2022-12-03T14:15:50.872Z,21.65
2022-12-03T14:20:58.388Z,23.33
2022-12-03T14:23:32.143Z,19.52
2022-12-03T14:28:40.935Z,22.80
2022-12-03T14:31:15.044Z,21.08
2022-12-03T14:33:48.311Z,26.60
2022-12-03T14:36:21.385Z,23.20
2022-12-03T14:38:54.319Z,23.42
2022-12-03T14:41:44.901Z,17.73
2022-12-03T14:44:21.786Z,17.27
2022-12-03T14:46:57.352Z,20.95
2022-12-03T14:49:30.825Z,17.23
2022-12-03T14:52:09.915Z,18.45
2022-12-03T14:54:46.263Z,19.23
2022-12-03T14:57:19.309Z,18.73
2022-12-03T14:59:53.883Z,20.20
2022-12-03T15:02:27.427Z,20.65
2022-12-03T15:05:00.651Z,20.63
2022-12-03T15:07:35.064Z,19.98
2022-12-03T15:10:09.364Z,15.68
2022-12-03T15:12:42.443Z,17.50
2022-12-03T15:15:17.146Z,18.70
2022-12-03T15:17:50.121Z,20.77
2022-12-03T15:20:24.424Z,20.77
2022-12-03T15:22:57.458Z,23.57
2022-12-03T15:25:30.449Z,26.80
2022-12-03T15:28:05.235Z,21.87
2022-12-03T15:30:39.733Z,21.73
2022-12-03T15:33:12.721Z,23.52
2022-12-03T15:35:45.734Z,19.38
2022-12-03T15:38:19.229Z,25.90
2022-12-03T15:40:52.205Z,23.40
2022-12-03T15:43:25.199Z,21.20
2022-12-03T15:45:59.623Z,18.77
2022-12-03T15:48:35.546Z,20.30
2022-12-03T15:51:08.537Z,25.92
2022-12-03T15:53:41.931Z,14.93
2022-12-03T15:56:14.915Z,17.33
2022-12-03T15:58:47.826Z,26.75
2022-12-03T16:01:22.313Z,18.93
2022-12-03T16:03:55.276Z,19.95
2022-12-03T16:06:28.392Z,18.77
2022-12-03T16:09:01.401Z,19.13
2022-12-03T16:11:34.381Z,20.45
2022-12-03T16:14:07.314Z,22.42
2022-12-03T16:16:42.747Z,24.70
2022-12-03T16:22:25.543Z,19.60
2022-12-03T16:26:19.541Z,19.52
2022-12-03T16:28:55.311Z,22.85
2022-12-03T16:31:29.475Z,21.17
2022-12-03T16:34:03.469Z,24.90
2022-12-03T16:36:37.538Z,19.55
2022-12-03T16:39:12.816Z,21.20
2022-12-03T16:41:48.176Z,19.48
2022-12-03T16:44:32.425Z,19.67
2022-12-03T16:47:06.413Z,18.88
2022-12-03T16:49:40.393Z,19.02
2022-12-03T16:52:14.326Z,21.23
2022-12-03T16:54:48.556Z,18.52
2022-12-03T16:57:26.561Z,15.18
2022-12-03T17:00:05.051Z,20.73
2022-12-03T17:02:39.145Z,17.55
2022-12-03T17:05:14.058Z,15.65
2022-12-03T17:07:48.128Z,18.15
2022-12-03T17:10:22.184Z,23.08
2022-12-03T17:13:13.212Z,17.38
2022-12-03T17:15:47.222Z,18.50
2022-12-03T17:18:22.698Z,19.75
2022-12-03T17:20:56.800Z,16.25
2022-12-03T17:23:31.202Z,19.20
2022-12-03T17:26:05.588Z,18.27
2022-12-03T17:28:41.051Z,26.42
2022-12-03T17:31:15.372Z,31.98
2022-12-03T17:33:49.375Z,18.55
2022-12-03T17:38:57.036Z,27.02
2022-12-03T17:41:31.021Z,20.80
2022-12-03T17:44:10.734Z,22.42
2022-12-03T17:46:46.376Z,26.63
2022-12-03T17:49:20.371Z,31.65
2022-12-03T17:51:54.360Z,31.40
2022-12-03T17:54:43.475Z,31.15
2022-12-03T17:57:22.463Z,38.72
2022-12-03T17:59:57.948Z,33.92
2022-12-03T18:02:31.999Z,32.58
2022-12-03T18:05:06.179Z,40.55
2022-12-03T18:07:40.266Z,29.40
2022-12-03T18:10:14.453Z,41.95
2022-12-03T18:12:48.358Z,38.65
2022-12-03T18:17:57.135Z,37.85
2022-12-03T18:23:05.352Z,30.95
2022-12-03T18:25:39.427Z,44.08
2022-12-03T18:28:13.492Z,35.97
2022-12-03T18:30:52.509Z,35.05
2022-12-03T18:33:27.576Z,35.55
2022-12-03T18:36:01.520Z,32.85
2022-12-03T18:38:35.647Z,35.20
2022-12-03T18:41:09.786Z,33.72
2022-12-03T18:43:43.752Z,34.85
2022-12-03T18:49:14.800Z,30.38
2022-12-03T18:51:50.427Z,25.00
2022-12-03T18:54:26.135Z,30.38
2022-12-03T18:57:00.219Z,32.60
2022-12-03T18:59:34.365Z,34.85
2022-12-03T19:02:26.664Z,25.23
2022-12-03T19:05:08.642Z,28.08
2022-12-03T19:07:43.454Z,24.45
2022-12-03T19:10:17.441Z,24.83
2022-12-03T19:12:51.558Z,28.42
2022-12-03T19:15:25.514Z,27.13
2022-12-03T19:18:00.899Z,27.90
2022-12-03T19:20:35.096Z,27.98
2022-12-03T19:23:09.282Z,24.65
2022-12-03T19:25:43.221Z,26.05
2022-12-03T19:28:17.140Z,20.67
2022-12-03T19:30:58.901Z,20.27
2022-12-03T19:33:35.468Z,20.58
2022-12-03T19:36:19.688Z,19.58
2022-12-03T19:38:57.295Z,20.48
2022-12-03T19:41:31.805Z,20.58
2022-12-03T19:44:10.729Z,20.15
2022-12-03T19:46:45.646Z,17.20
2022-12-03T19:49:22.633Z,19.67
2022-12-03T19:51:56.744Z,23.10
2022-12-03T19:54:30.872Z,24.63
2022-12-03T19:57:04.939Z,21.48
2022-12-03T19:59:39.174Z,19.73
2022-12-03T20:02:13.521Z,21.23
2022-12-03T20:04:49.086Z,18.40
2022-12-03T20:07:23.187Z,18.75
2022-12-03T20:09:57.464Z,15.93
2022-12-03T20:12:31.677Z,18.90
2022-12-03T20:15:06.451Z,19.77
2022-12-03T20:17:40.448Z,15.10
2022-12-03T20:20:15.964Z,18.95
2022-12-03T20:22:50.315Z,14.45
2022-12-03T20:25:24.416Z,15.75
2022-12-03T20:27:59.091Z,24.77
2022-12-03T20:30:33.593Z,16.38
2022-12-03T20:33:07.493Z,18.52
2022-12-03T20:35:42.815Z,17.35
2022-12-03T20:38:16.863Z,15.65
2022-12-03T20:40:51.363Z,24.30
2022-12-03T20:43:25.372Z,17.25
2022-12-03T20:46:06.928Z,14.45
2022-12-03T20:48:41.757Z,17.60
2022-12-03T20:51:20.076Z,20.83
2022-12-03T20:53:54.157Z,15.27
2022-12-03T20:56:31.426Z,18.83
2022-12-03T20:59:07.340Z,16.15
2022-12-03T21:01:42.790Z,18.25
2022-12-03T21:04:18.191Z,17.33
2022-12-03T21:06:53.460Z,15.98
2022-12-03T21:09:27.322Z,14.13
2022-12-03T21:14:35.755Z,16.23
2022-12-03T21:17:09.989Z,18.98
2022-12-03T21:19:43.961Z,16.30
2022-12-03T21:24:52.884Z,15.18
2022-12-03T21:30:00.308Z,14.90
2022-12-03T21:32:34.170Z,15.70
2022-12-03T21:35:08.832Z,15.32
2022-12-03T21:37:44.053Z,13.30
2022-12-03T21:40:17.932Z,16.50
2022-12-03T21:45:26.414Z,13.20
2022-12-03T21:48:00.296Z,14.85
2022-12-03T21:50:34.231Z,19.23
2022-12-03T21:53:09.824Z,14.35
2022-12-03T21:55:43.668Z,14.95
2022-12-03T22:00:51.185Z,15.50
2022-12-03T22:03:25.077Z,15.98
2022-12-03T22:08:33.935Z,13.50
2022-12-03T22:11:09.451Z,18.35
2022-12-03T22:13:43.593Z,13.55
2022-12-03T22:16:18.956Z,15.98
2022-12-03T22:18:53.677Z,12.57
2022-12-03T22:21:27.676Z,16.08
2022-12-03T22:24:03.198Z,14.52
2022-12-03T22:26:37.089Z,15.43
2022-12-03T22:29:12.329Z,14.82
2022-12-03T22:31:46.363Z,12.32
2022-12-03T22:36:54.022Z,12.43
2022-12-03T22:42:02.916Z,12.27
2022-12-03T22:44:36.718Z,11.93
2022-12-03T22:49:44.060Z,12.82
2022-12-03T22:54:52.847Z,15.83
2022-12-03T22:57:26.644Z,13.75
2022-12-03T23:02:34.729Z,16.77
2022-12-03T23:05:08.981Z,12.50
2022-12-03T23:07:42.881Z,12.95
2022-12-03T23:10:18.458Z,12.75
2022-12-03T23:12:52.316Z,14.25
2022-12-03T23:17:59.951Z,12.50
2022-12-03T23:20:33.752Z,14.30
2022-12-03T23:25:42.796Z,10.65
2022-12-03T23:28:16.703Z,13.77
2022-12-03T23:30:50.773Z,13.80
2022-12-03T23:33:25.315Z,11.40
2022-12-03T23:35:59.295Z,14.30
2022-12-03T23:38:33.493Z,15.13
2022-12-03T23:43:44.053Z,12.52
2022-12-03T23:46:22.208Z,12.55
2022-12-03T23:48:58.612Z,13.65
2022-12-03T23:51:32.434Z,14.73
2022-12-03T23:56:41.280Z,12.10
2022-12-03T23:59:15.198Z,11.95
